UAE440 OMDB-VAAH
Flight info
| Callsign | UAE440 |
|---|---|
| Flight time | 2h 9m |
| Altitude | 41000 |
| Route | IVURO M677 LALDO B505 NADSO B524 ALPOR M504 TELEM N893 VASLA |
| Aircraft | A359/H-SDE2E3GHIJ3J4J5LM1ORWXY/LB1D1 |
Departure
| Time | 2026-04-30 11:34 |
|---|---|
| Airport | Dubai International Airport (OMDB) |
Arrival
| Time | 2026-04-30 13:43 |
|---|---|
| Airport | Sardar Vallabh Patel International Airport (VAAH) |
| Time | Latitude | Longitude | Altitude | Speed | Heading |
|---|---|---|---|---|---|
| 2026-04-30 10:46 | 25.24907 | 55.35825 | 29 ft | 0 kts | 34° |
| 2026-04-30 11:15 | 25.24902 | 55.35821 | 28 ft | 2 kts | 34° |
| 2026-04-30 11:15 | 25.24887 | 55.35810 | 27 ft | 3 kts | 34° |
| 2026-04-30 11:15 | 25.24869 | 55.35797 | 27 ft | 3 kts | 34° |
| 2026-04-30 11:16 | 25.24851 | 55.35783 | 27 ft | 3 kts | 34° |
| 2026-04-30 11:16 | 25.24838 | 55.35765 | 26 ft | 3 kts | 77° |
| 2026-04-30 11:16 | 25.24834 | 55.35741 | 27 ft | 3 kts | 89° |
| 2026-04-30 11:16 | 25.24836 | 55.35718 | 25 ft | 3 kts | 95° |
| 2026-04-30 11:17 | 25.24838 | 55.35694 | 26 ft | 3 kts | 95° |
| 2026-04-30 11:17 | 25.24840 | 55.35670 | 26 ft | 3 kts | 99° |
| 2026-04-30 11:17 | 25.24849 | 55.35649 | 26 ft | 3 kts | 124° |
| 2026-04-30 11:17 | 25.24861 | 55.35629 | 25 ft | 3 kts | 125° |
| 2026-04-30 11:18 | 25.24873 | 55.35610 | 26 ft | 2 kts | 126° |
| 2026-04-30 11:18 | 25.24874 | 55.35610 | 26 ft | 0 kts | 126° |
| 2026-04-30 11:21 | 25.24868 | 55.35618 | 26 ft | 6 kts | 125° |
| 2026-04-30 11:21 | 25.24816 | 55.35696 | 26 ft | 19 kts | 127° |
| 2026-04-30 11:21 | 25.24757 | 55.35794 | 28 ft | 16 kts | 123° |
| 2026-04-30 11:21 | 25.24694 | 55.35907 | 28 ft | 19 kts | 121° |
| 2026-04-30 11:22 | 25.24620 | 55.36043 | 28 ft | 22 kts | 122° |
| 2026-04-30 11:22 | 25.24538 | 55.36189 | 28 ft | 20 kts | 121° |
| 2026-04-30 11:22 | 25.24459 | 55.36330 | 28 ft | 23 kts | 123° |
| 2026-04-30 11:22 | 25.24383 | 55.36479 | 28 ft | 23 kts | 110° |
| 2026-04-30 11:23 | 25.24387 | 55.36652 | 28 ft | 24 kts | 69° |
| 2026-04-30 11:23 | 25.24488 | 55.36768 | 28 ft | 21 kts | 33° |
| 2026-04-30 11:23 | 25.24742 | 55.36936 | 28 ft | 20 kts | 30° |
| 2026-04-30 11:24 | 25.24744 | 55.37047 | 28 ft | 17 kts | 122° |
| 2026-04-30 11:24 | 25.24676 | 55.37170 | 28 ft | 21 kts | 121° |
| 2026-04-30 11:24 | 25.24593 | 55.37319 | 28 ft | 24 kts | 121° |
| 2026-04-30 11:25 | 25.24394 | 55.37679 | 28 ft | 29 kts | 121° |
| 2026-04-30 11:25 | 25.24294 | 55.37858 | 28 ft | 25 kts | 121° |
| 2026-04-30 11:25 | 25.24099 | 55.38209 | 28 ft | 28 kts | 122° |
| 2026-04-30 11:26 | 25.23922 | 55.38530 | 28 ft | 24 kts | 122° |
| 2026-04-30 11:26 | 25.23837 | 55.38682 | 28 ft | 24 kts | 121° |
| 2026-04-30 11:26 | 25.23768 | 55.38808 | 28 ft | 18 kts | 121° |
| 2026-04-30 11:27 | 25.23697 | 55.38937 | 28 ft | 22 kts | 121° |
| 2026-04-30 11:27 | 25.23626 | 55.39065 | 28 ft | 10 kts | 121° |
| 2026-04-30 11:27 | 25.23583 | 55.39142 | 28 ft | 14 kts | 121° |
| 2026-04-30 11:27 | 25.23526 | 55.39245 | 28 ft | 17 kts | 122° |
| 2026-04-30 11:28 | 25.23455 | 55.39373 | 28 ft | 11 kts | 117° |
| 2026-04-30 11:28 | 25.23479 | 55.39440 | 28 ft | 4 kts | 33° |
| 2026-04-30 11:31 | 25.23494 | 55.39451 | 28 ft | 7 kts | 32° |
| 2026-04-30 11:31 | 25.23565 | 55.39484 | 28 ft | 14 kts | 358° |
| 2026-04-30 11:31 | 25.23610 | 55.39449 | 28 ft | 0 kts | 301° |
| 2026-04-30 11:33 | 25.23610 | 55.39448 | 28 ft | 2 kts | 301° |
| 2026-04-30 11:33 | 25.23758 | 55.39180 | 28 ft | 90 kts | 301° |
| 2026-04-30 11:34 | 25.24247 | 55.38307 | 88 ft | 170 kts | 302° |
| 2026-04-30 11:34 | 25.24924 | 55.37156 | 869 ft | 184 kts | 303° |
| 2026-04-30 11:34 | 25.25675 | 55.35976 | 2031 ft | 194 kts | 309° |
| 2026-04-30 11:34 | 25.26492 | 55.34774 | 2930 ft | 192 kts | 305° |
| 2026-04-30 11:35 | 25.27267 | 55.33591 | 3538 ft | 193 kts | 305° |
| 2026-04-30 11:35 | 25.28057 | 55.32332 | 3936 ft | 208 kts | 302° |
| 2026-04-30 11:35 | 25.28869 | 55.30925 | 4414 ft | 227 kts | 302° |
| 2026-04-30 11:35 | 25.30071 | 55.29835 | 5269 ft | 225 kts | 339° |
| 2026-04-30 11:36 | 25.31628 | 55.29684 | 6171 ft | 227 kts | 0° |
| 2026-04-30 11:36 | 25.33225 | 55.29736 | 6859 ft | 234 kts | 357° |
| 2026-04-30 11:36 | 25.34875 | 55.29743 | 7555 ft | 242 kts | 355° |
| 2026-04-30 11:36 | 25.36598 | 55.29729 | 8291 ft | 251 kts | 355° |
| 2026-04-30 11:37 | 25.38363 | 55.29776 | 9103 ft | 259 kts | 0° |
| 2026-04-30 11:37 | 25.40118 | 55.30420 | 9882 ft | 278 kts | 28° |
| 2026-04-30 11:37 | 25.41604 | 55.31945 | 10319 ft | 306 kts | 47° |
| 2026-04-30 11:37 | 25.42985 | 55.33858 | 10680 ft | 330 kts | 50° |
| 2026-04-30 11:38 | 25.44439 | 55.35919 | 11067 ft | 351 kts | 50° |
| 2026-04-30 11:38 | 25.45997 | 55.38097 | 11464 ft | 370 kts | 50° |
| 2026-04-30 11:38 | 25.47613 | 55.40331 | 12015 ft | 381 kts | 49° |
| 2026-04-30 11:38 | 25.49283 | 55.42642 | 12715 ft | 388 kts | 50° |
| 2026-04-30 11:39 | 25.50910 | 55.45058 | 13426 ft | 395 kts | 55° |
| 2026-04-30 11:39 | 25.52064 | 55.47836 | 14090 ft | 402 kts | 75° |
| 2026-04-30 11:39 | 25.52302 | 55.50914 | 14737 ft | 405 kts | 97° |
| 2026-04-30 11:39 | 25.51553 | 55.53899 | 15361 ft | 404 kts | 119° |
| 2026-04-30 11:40 | 25.50073 | 55.56527 | 15996 ft | 405 kts | 127° |
| 2026-04-30 11:40 | 25.48545 | 55.59087 | 16627 ft | 410 kts | 127° |
| 2026-04-30 11:40 | 25.46990 | 55.61750 | 17253 ft | 415 kts | 126° |
| 2026-04-30 11:40 | 25.45934 | 55.63577 | 17699 ft | 418 kts | 126° |
| 2026-04-30 11:41 | 25.44565 | 55.65956 | 18225 ft | 422 kts | 126° |
| 2026-04-30 11:41 | 25.43053 | 55.68764 | 18772 ft | 430 kts | 120° |
| 2026-04-30 11:41 | 25.42047 | 55.71918 | 19357 ft | 438 kts | 107° |
| 2026-04-30 11:41 | 25.41333 | 55.75216 | 19945 ft | 444 kts | 105° |
| 2026-04-30 11:42 | 25.40643 | 55.78558 | 20533 ft | 448 kts | 105° |
| 2026-04-30 11:42 | 25.39938 | 55.81937 | 21124 ft | 453 kts | 105° |
| 2026-04-30 11:42 | 25.39215 | 55.85352 | 21711 ft | 458 kts | 105° |
| 2026-04-30 11:42 | 25.38484 | 55.88790 | 22312 ft | 462 kts | 106° |
| 2026-04-30 11:43 | 25.37740 | 55.92273 | 22909 ft | 467 kts | 107° |
| 2026-04-30 11:43 | 25.36991 | 55.95785 | 23480 ft | 472 kts | 107° |
| 2026-04-30 11:43 | 25.36233 | 55.99333 | 23996 ft | 476 kts | 107° |
| 2026-04-30 11:43 | 25.35466 | 56.02905 | 24546 ft | 479 kts | 107° |
| 2026-04-30 11:44 | 25.34692 | 56.06505 | 25099 ft | 483 kts | 107° |
| 2026-04-30 11:44 | 25.33914 | 56.10125 | 25638 ft | 487 kts | 107° |
| 2026-04-30 11:44 | 25.33133 | 56.13791 | 26148 ft | 491 kts | 106° |
| 2026-04-30 11:44 | 25.32568 | 56.17537 | 26681 ft | 497 kts | 101° |
| 2026-04-30 11:45 | 25.32171 | 56.21353 | 27202 ft | 502 kts | 98° |
| 2026-04-30 11:45 | 25.31851 | 56.25205 | 27754 ft | 505 kts | 97° |
| 2026-04-30 11:45 | 25.31559 | 56.29097 | 28209 ft | 510 kts | 97° |
| 2026-04-30 11:45 | 25.31267 | 56.33015 | 28684 ft | 515 kts | 98° |
| 2026-04-30 11:46 | 25.30963 | 56.36973 | 29159 ft | 518 kts | 98° |
| 2026-04-30 11:46 | 25.30649 | 56.40959 | 29661 ft | 522 kts | 98° |
| 2026-04-30 11:46 | 25.30450 | 56.44672 | 30028 ft | 526 kts | 95° |
| 2026-04-30 11:46 | 25.30367 | 56.47350 | 30284 ft | 529 kts | 94° |
| 2026-04-30 11:47 | 25.30276 | 56.52065 | 30742 ft | 532 kts | 94° |
| 2026-04-30 11:47 | 25.30168 | 56.56159 | 31132 ft | 533 kts | 97° |
| 2026-04-30 11:47 | 25.29880 | 56.58838 | 31458 ft | 530 kts | 103° |
| 2026-04-30 11:47 | 25.29239 | 56.61871 | 31816 ft | 526 kts | 110° |
| 2026-04-30 11:48 | 25.28035 | 56.65683 | 32177 ft | 526 kts | 114° |
| 2026-04-30 11:48 | 25.26690 | 56.69452 | 32496 ft | 529 kts | 116° |
| 2026-04-30 11:48 | 25.25680 | 56.72136 | 32716 ft | 530 kts | 116° |
| 2026-04-30 11:49 | 25.24235 | 56.75888 | 33039 ft | 533 kts | 117° |
| 2026-04-30 11:49 | 25.22772 | 56.79656 | 33337 ft | 535 kts | 117° |
| 2026-04-30 11:49 | 25.21304 | 56.83447 | 33659 ft | 537 kts | 117° |
| 2026-04-30 11:49 | 25.19842 | 56.87249 | 33999 ft | 538 kts | 116° |
| 2026-04-30 11:50 | 25.18384 | 56.91058 | 34319 ft | 539 kts | 116° |
| 2026-04-30 11:50 | 25.16951 | 56.94814 | 34717 ft | 537 kts | 116° |
| 2026-04-30 11:50 | 25.15488 | 56.98657 | 35142 ft | 535 kts | 116° |
| 2026-04-30 11:50 | 25.14067 | 57.02386 | 35527 ft | 533 kts | 116° |
| 2026-04-30 11:51 | 25.12627 | 57.06162 | 35908 ft | 532 kts | 116° |
| 2026-04-30 11:51 | 25.11192 | 57.09920 | 36265 ft | 532 kts | 116° |
| 2026-04-30 11:51 | 25.09735 | 57.13731 | 36629 ft | 530 kts | 116° |
| 2026-04-30 11:51 | 25.08789 | 57.16202 | 36889 ft | 529 kts | 116° |
| 2026-04-30 11:52 | 25.07360 | 57.19935 | 37255 ft | 528 kts | 116° |
| 2026-04-30 11:52 | 25.05927 | 57.23673 | 37615 ft | 527 kts | 117° |
| 2026-04-30 11:52 | 25.04502 | 57.27384 | 37971 ft | 526 kts | 117° |
| 2026-04-30 11:52 | 25.03077 | 57.31094 | 38318 ft | 525 kts | 117° |
| 2026-04-30 11:53 | 25.02134 | 57.33548 | 38521 ft | 524 kts | 117° |
| 2026-04-30 11:53 | 25.01160 | 57.36082 | 38704 ft | 524 kts | 117° |
| 2026-04-30 11:53 | 24.99738 | 57.39777 | 39000 ft | 522 kts | 117° |
| 2026-04-30 11:53 | 24.98316 | 57.43468 | 39267 ft | 521 kts | 117° |
| 2026-04-30 11:54 | 24.97042 | 57.46772 | 39521 ft | 519 kts | 117° |
| 2026-04-30 11:54 | 24.95629 | 57.50436 | 39786 ft | 518 kts | 117° |
| 2026-04-30 11:54 | 24.94223 | 57.54077 | 40038 ft | 517 kts | 117° |
| 2026-04-30 11:54 | 24.92812 | 57.57726 | 40299 ft | 516 kts | 117° |
| 2026-04-30 11:55 | 24.91407 | 57.61358 | 40554 ft | 515 kts | 117° |
| 2026-04-30 11:55 | 24.90000 | 57.64992 | 40729 ft | 515 kts | 117° |
| 2026-04-30 11:55 | 24.87208 | 57.72195 | 40758 ft | 514 kts | 117° |
| 2026-04-30 11:56 | 24.84400 | 57.79430 | 40754 ft | 514 kts | 117° |
| 2026-04-30 11:56 | 24.82305 | 57.87051 | 40752 ft | 519 kts | 107° |
| 2026-04-30 11:57 | 24.80681 | 57.94794 | 40756 ft | 519 kts | 106° |
| 2026-04-30 11:57 | 24.79656 | 57.99926 | 40754 ft | 519 kts | 106° |
| 2026-04-30 11:58 | 24.78736 | 58.04526 | 40755 ft | 519 kts | 106° |
| 2026-04-30 11:59 | 24.77170 | 58.12281 | 40755 ft | 519 kts | 106° |
| 2026-04-30 11:59 | 24.75586 | 58.20035 | 40755 ft | 519 kts | 106° |
| 2026-04-30 12:00 | 24.73993 | 58.27792 | 40755 ft | 520 kts | 106° |
| 2026-04-30 12:00 | 24.72397 | 58.35539 | 40754 ft | 520 kts | 106° |
| 2026-04-30 12:01 | 24.70796 | 58.43297 | 40752 ft | 520 kts | 106° |
| 2026-04-30 12:01 | 24.69193 | 58.51041 | 40751 ft | 520 kts | 106° |
| 2026-04-30 12:02 | 24.67585 | 58.58789 | 40752 ft | 520 kts | 106° |
| 2026-04-30 12:02 | 24.65975 | 58.66526 | 40752 ft | 520 kts | 107° |
| 2026-04-30 12:03 | 24.63549 | 58.78146 | 40747 ft | 520 kts | 107° |
| 2026-04-30 12:04 | 24.61929 | 58.85879 | 40745 ft | 520 kts | 107° |
| 2026-04-30 12:04 | 24.60302 | 58.93625 | 40746 ft | 520 kts | 107° |
| 2026-04-30 12:05 | 24.58726 | 59.01106 | 40747 ft | 520 kts | 107° |
| 2026-04-30 12:05 | 24.57113 | 59.08745 | 40745 ft | 519 kts | 107° |
| 2026-04-30 12:06 | 24.55478 | 59.16465 | 40743 ft | 518 kts | 107° |
| 2026-04-30 12:06 | 24.53852 | 59.24135 | 40743 ft | 518 kts | 107° |
| 2026-04-30 12:07 | 24.52211 | 59.31847 | 40743 ft | 518 kts | 107° |
| 2026-04-30 12:07 | 24.50565 | 59.39539 | 40744 ft | 518 kts | 107° |
| 2026-04-30 12:08 | 24.48917 | 59.47229 | 40743 ft | 517 kts | 107° |
| 2026-04-30 12:08 | 24.47262 | 59.54932 | 40747 ft | 518 kts | 107° |
| 2026-04-30 12:09 | 24.45606 | 59.62626 | 40744 ft | 518 kts | 107° |
| 2026-04-30 12:09 | 24.43946 | 59.70315 | 40739 ft | 518 kts | 107° |
| 2026-04-30 12:10 | 24.42268 | 59.78059 | 40740 ft | 525 kts | 107° |
| 2026-04-30 12:10 | 24.40567 | 59.85893 | 40744 ft | 529 kts | 107° |
| 2026-04-30 12:11 | 24.38857 | 59.93761 | 40745 ft | 530 kts | 107° |
| 2026-04-30 12:11 | 24.37152 | 60.01585 | 40741 ft | 530 kts | 107° |
| 2026-04-30 12:12 | 24.35434 | 60.09443 | 40740 ft | 530 kts | 107° |
| 2026-04-30 12:12 | 24.33715 | 60.17309 | 40741 ft | 530 kts | 107° |
| 2026-04-30 12:13 | 24.31989 | 60.25158 | 40738 ft | 530 kts | 107° |
| 2026-04-30 12:13 | 24.30254 | 60.33026 | 40736 ft | 530 kts | 107° |
| 2026-04-30 12:14 | 24.28511 | 60.40918 | 40735 ft | 529 kts | 107° |
| 2026-04-30 12:14 | 24.26776 | 60.48756 | 40735 ft | 529 kts | 107° |
| 2026-04-30 12:15 | 24.25039 | 60.56586 | 40736 ft | 529 kts | 107° |
| 2026-04-30 12:15 | 24.23296 | 60.64417 | 40735 ft | 529 kts | 107° |
| 2026-04-30 12:16 | 24.21553 | 60.72230 | 40737 ft | 529 kts | 107° |
| 2026-04-30 12:16 | 24.19806 | 60.80067 | 40733 ft | 529 kts | 107° |
| 2026-04-30 12:17 | 24.17175 | 60.91818 | 40733 ft | 530 kts | 107° |
| 2026-04-30 12:17 | 24.15417 | 60.99647 | 40732 ft | 529 kts | 107° |
| 2026-04-30 12:18 | 24.13672 | 61.07404 | 40736 ft | 528 kts | 107° |
| 2026-04-30 12:18 | 24.11912 | 61.15204 | 40732 ft | 528 kts | 107° |
| 2026-04-30 12:19 | 24.10147 | 61.23009 | 40730 ft | 528 kts | 107° |
| 2026-04-30 12:19 | 24.08390 | 61.30808 | 40727 ft | 528 kts | 105° |
| 2026-04-30 12:20 | 24.07475 | 61.38808 | 40732 ft | 532 kts | 97° |
| 2026-04-30 12:20 | 24.06959 | 61.46889 | 40730 ft | 533 kts | 96° |
| 2026-04-30 12:21 | 24.06504 | 61.54986 | 40730 ft | 533 kts | 96° |
| 2026-04-30 12:21 | 24.06038 | 61.63065 | 40727 ft | 532 kts | 96° |
| 2026-04-30 12:22 | 24.05552 | 61.71157 | 40724 ft | 532 kts | 96° |
| 2026-04-30 12:22 | 24.05057 | 61.79234 | 40728 ft | 532 kts | 96° |
| 2026-04-30 12:23 | 24.04558 | 61.87297 | 40730 ft | 531 kts | 96° |
| 2026-04-30 12:23 | 24.04056 | 61.95350 | 40730 ft | 530 kts | 96° |
| 2026-04-30 12:24 | 24.03551 | 62.03398 | 40727 ft | 530 kts | 96° |
| 2026-04-30 12:24 | 24.03041 | 62.11455 | 40727 ft | 530 kts | 96° |
| 2026-04-30 12:25 | 24.02527 | 62.19501 | 40728 ft | 530 kts | 96° |
| 2026-04-30 12:25 | 24.02009 | 62.27555 | 40726 ft | 530 kts | 96° |
| 2026-04-30 12:26 | 24.01491 | 62.35543 | 40726 ft | 530 kts | 96° |
| 2026-04-30 12:26 | 24.00965 | 62.43580 | 40721 ft | 530 kts | 96° |
| 2026-04-30 12:27 | 24.00435 | 62.51618 | 40721 ft | 530 kts | 96° |
| 2026-04-30 12:27 | 23.99900 | 62.59656 | 40718 ft | 530 kts | 96° |
| 2026-04-30 12:28 | 23.99362 | 62.67688 | 40723 ft | 530 kts | 96° |
| 2026-04-30 12:28 | 23.98819 | 62.75733 | 40722 ft | 530 kts | 96° |
| 2026-04-30 12:29 | 23.98272 | 62.83778 | 40719 ft | 530 kts | 96° |
| 2026-04-30 12:29 | 23.97722 | 62.91797 | 40719 ft | 528 kts | 96° |
| 2026-04-30 12:30 | 23.97262 | 62.98463 | 40717 ft | 528 kts | 96° |
| 2026-04-30 12:30 | 23.96611 | 63.07806 | 40720 ft | 528 kts | 96° |
| 2026-04-30 12:31 | 23.96145 | 63.14459 | 40717 ft | 528 kts | 96° |
| 2026-04-30 12:31 | 23.95580 | 63.22465 | 40717 ft | 528 kts | 96° |
| 2026-04-30 12:32 | 23.95011 | 63.30465 | 40717 ft | 528 kts | 96° |
| 2026-04-30 12:32 | 23.94437 | 63.38468 | 40715 ft | 528 kts | 96° |
| 2026-04-30 12:33 | 23.93860 | 63.46470 | 40715 ft | 528 kts | 96° |
| 2026-04-30 12:33 | 23.93280 | 63.54455 | 40715 ft | 528 kts | 96° |
| 2026-04-30 12:34 | 23.92693 | 63.62464 | 40715 ft | 528 kts | 96° |
| 2026-04-30 12:34 | 23.92104 | 63.70463 | 40713 ft | 528 kts | 96° |
| 2026-04-30 12:35 | 23.91511 | 63.78443 | 40720 ft | 527 kts | 96° |
| 2026-04-30 12:35 | 23.90914 | 63.86432 | 40709 ft | 527 kts | 96° |
| 2026-04-30 12:36 | 23.90312 | 63.94427 | 40717 ft | 527 kts | 96° |
| 2026-04-30 12:36 | 23.89708 | 64.02394 | 40716 ft | 526 kts | 96° |
| 2026-04-30 12:37 | 23.89099 | 64.10364 | 40711 ft | 525 kts | 96° |
| 2026-04-30 12:37 | 23.88487 | 64.18332 | 40714 ft | 526 kts | 96° |
| 2026-04-30 12:38 | 23.87871 | 64.26288 | 40723 ft | 526 kts | 96° |
| 2026-04-30 12:38 | 23.87252 | 64.34235 | 40723 ft | 526 kts | 96° |
| 2026-04-30 12:39 | 23.86627 | 64.42197 | 40717 ft | 526 kts | 96° |
| 2026-04-30 12:39 | 23.85998 | 64.50159 | 40713 ft | 526 kts | 96° |
| 2026-04-30 12:40 | 23.85367 | 64.58110 | 40723 ft | 526 kts | 96° |
| 2026-04-30 12:40 | 23.84734 | 64.66023 | 40719 ft | 525 kts | 96° |
| 2026-04-30 12:41 | 23.84093 | 64.73974 | 40704 ft | 525 kts | 96° |
| 2026-04-30 12:41 | 23.83464 | 64.81929 | 40708 ft | 526 kts | 94° |
| 2026-04-30 12:42 | 23.83365 | 64.89920 | 40707 ft | 526 kts | 90° |
| 2026-04-30 12:42 | 23.83406 | 64.97903 | 40725 ft | 526 kts | 90° |
| 2026-04-30 12:43 | 23.83468 | 65.05910 | 40722 ft | 527 kts | 90° |
| 2026-04-30 12:43 | 23.83519 | 65.13920 | 40714 ft | 527 kts | 90° |
| 2026-04-30 12:44 | 23.83559 | 65.21922 | 40712 ft | 527 kts | 90° |
| 2026-04-30 12:44 | 23.83592 | 65.29917 | 40721 ft | 525 kts | 90° |
| 2026-04-30 12:45 | 23.83621 | 65.37904 | 40720 ft | 525 kts | 90° |
| 2026-04-30 12:45 | 23.83647 | 65.45891 | 40703 ft | 525 kts | 90° |
| 2026-04-30 12:46 | 23.83668 | 65.53871 | 40718 ft | 525 kts | 90° |
| 2026-04-30 12:46 | 23.83686 | 65.61856 | 40704 ft | 525 kts | 90° |
| 2026-04-30 12:47 | 23.83699 | 65.69790 | 40717 ft | 526 kts | 90° |
| 2026-04-30 12:47 | 23.83708 | 65.77779 | 40722 ft | 526 kts | 90° |
| 2026-04-30 12:48 | 23.83714 | 65.85768 | 40721 ft | 526 kts | 90° |
| 2026-04-30 12:48 | 23.83715 | 65.93757 | 40713 ft | 526 kts | 90° |
| 2026-04-30 12:49 | 23.83713 | 65.98612 | 40719 ft | 526 kts | 90° |
| 2026-04-30 12:49 | 23.83707 | 66.06605 | 40719 ft | 526 kts | 90° |
| 2026-04-30 12:50 | 23.83698 | 66.14597 | 40719 ft | 526 kts | 90° |
| 2026-04-30 12:50 | 23.83684 | 66.22585 | 40723 ft | 526 kts | 90° |
| 2026-04-30 12:51 | 23.83666 | 66.30571 | 40716 ft | 526 kts | 90° |
| 2026-04-30 12:51 | 23.83644 | 66.38564 | 40717 ft | 527 kts | 90° |
| 2026-04-30 12:52 | 23.83617 | 66.46530 | 40712 ft | 527 kts | 90° |
| 2026-04-30 12:52 | 23.83587 | 66.54530 | 40704 ft | 527 kts | 90° |
| 2026-04-30 12:53 | 23.83552 | 66.62533 | 40724 ft | 527 kts | 90° |
| 2026-04-30 12:53 | 23.83514 | 66.70544 | 40721 ft | 527 kts | 90° |
| 2026-04-30 12:54 | 23.83471 | 66.78562 | 40707 ft | 527 kts | 90° |
| 2026-04-30 12:54 | 23.83424 | 66.86575 | 40719 ft | 527 kts | 90° |
| 2026-04-30 12:55 | 23.83373 | 66.94588 | 40706 ft | 528 kts | 90° |
| 2026-04-30 12:55 | 23.83823 | 67.02572 | 40723 ft | 526 kts | 81° |
| 2026-04-30 12:56 | 23.85019 | 67.10392 | 40704 ft | 525 kts | 79° |
| 2026-04-30 12:56 | 23.86335 | 67.18228 | 40719 ft | 524 kts | 79° |
| 2026-04-30 12:57 | 23.87656 | 67.26072 | 40718 ft | 525 kts | 78° |
| 2026-04-30 12:57 | 23.88957 | 67.33920 | 40718 ft | 525 kts | 79° |
| 2026-04-30 12:58 | 23.90077 | 67.40738 | 40718 ft | 525 kts | 79° |
| 2026-04-30 12:58 | 23.91364 | 67.48605 | 40710 ft | 526 kts | 79° |
| 2026-04-30 12:59 | 23.92650 | 67.56488 | 40700 ft | 527 kts | 78° |
| 2026-04-30 12:59 | 23.93934 | 67.64387 | 40705 ft | 528 kts | 78° |
| 2026-04-30 13:00 | 23.95214 | 67.72287 | 40717 ft | 528 kts | 78° |
| 2026-04-30 13:00 | 23.96492 | 67.80197 | 40714 ft | 528 kts | 78° |
| 2026-04-30 13:01 | 23.97759 | 67.88069 | 40696 ft | 528 kts | 79° |
| 2026-04-30 13:01 | 23.98654 | 67.93645 | 40704 ft | 528 kts | 79° |
| 2026-04-30 13:02 | 23.99913 | 68.01509 | 40713 ft | 528 kts | 79° |
| 2026-04-30 13:02 | 24.01175 | 68.09426 | 40712 ft | 528 kts | 79° |
| 2026-04-30 13:03 | 24.02433 | 68.17337 | 40704 ft | 528 kts | 79° |
| 2026-04-30 13:03 | 24.03687 | 68.25254 | 40703 ft | 529 kts | 78° |
| 2026-04-30 13:04 | 24.04939 | 68.33183 | 40700 ft | 529 kts | 79° |
| 2026-04-30 13:04 | 24.06186 | 68.41106 | 40707 ft | 529 kts | 79° |
| 2026-04-30 13:05 | 24.07430 | 68.49042 | 40699 ft | 529 kts | 79° |
| 2026-04-30 13:06 | 24.09289 | 68.60949 | 40702 ft | 530 kts | 78° |
| 2026-04-30 13:06 | 24.10524 | 68.68896 | 40708 ft | 530 kts | 78° |
| 2026-04-30 13:07 | 24.11101 | 68.76931 | 40692 ft | 532 kts | 93° |
| 2026-04-30 13:07 | 24.09606 | 68.84849 | 40706 ft | 531 kts | 105° |
| 2026-04-30 13:08 | 24.07591 | 68.92630 | 40713 ft | 531 kts | 105° |
| 2026-04-30 13:08 | 24.05566 | 69.00407 | 40704 ft | 532 kts | 105° |
| 2026-04-30 13:09 | 24.03537 | 69.08192 | 40702 ft | 532 kts | 105° |
| 2026-04-30 13:09 | 24.01506 | 69.15968 | 40705 ft | 532 kts | 105° |
| 2026-04-30 13:10 | 23.99469 | 69.23753 | 40697 ft | 532 kts | 105° |
| 2026-04-30 13:10 | 23.97776 | 69.30212 | 40702 ft | 532 kts | 105° |
| 2026-04-30 13:11 | 23.95396 | 69.39267 | 40709 ft | 533 kts | 105° |
| 2026-04-30 13:11 | 23.93680 | 69.45785 | 40700 ft | 533 kts | 105° |
| 2026-04-30 13:12 | 23.91637 | 69.53523 | 40710 ft | 533 kts | 105° |
| 2026-04-30 13:12 | 23.89579 | 69.61307 | 40697 ft | 533 kts | 105° |
| 2026-04-30 13:13 | 23.86480 | 69.72990 | 40703 ft | 533 kts | 105° |
| 2026-04-30 13:14 | 23.83375 | 69.84657 | 40704 ft | 533 kts | 105° |
| 2026-04-30 13:14 | 23.81032 | 69.93438 | 40695 ft | 534 kts | 105° |
| 2026-04-30 13:15 | 23.77909 | 70.05105 | 40695 ft | 534 kts | 105° |
| 2026-04-30 13:16 | 23.75819 | 70.12895 | 40706 ft | 534 kts | 105° |
| 2026-04-30 13:16 | 23.73737 | 70.20632 | 40699 ft | 534 kts | 105° |
| 2026-04-30 13:17 | 23.70589 | 70.32305 | 40701 ft | 534 kts | 105° |
| 2026-04-30 13:18 | 23.67442 | 70.43937 | 40500 ft | 532 kts | 105° |
| 2026-04-30 13:18 | 23.65342 | 70.51676 | 39605 ft | 534 kts | 106° |
| 2026-04-30 13:18 | 23.64282 | 70.55576 | 39149 ft | 537 kts | 106° |
| 2026-04-30 13:19 | 23.63218 | 70.59489 | 38664 ft | 541 kts | 106° |
| 2026-04-30 13:19 | 23.62142 | 70.63438 | 38134 ft | 544 kts | 106° |
| 2026-04-30 13:19 | 23.61061 | 70.67403 | 37560 ft | 547 kts | 106° |
| 2026-04-30 13:19 | 23.59973 | 70.71391 | 36998 ft | 547 kts | 106° |
| 2026-04-30 13:20 | 23.58888 | 70.75358 | 36451 ft | 545 kts | 106° |
| 2026-04-30 13:20 | 23.57805 | 70.79316 | 35914 ft | 542 kts | 106° |
| 2026-04-30 13:20 | 23.56730 | 70.83242 | 35390 ft | 538 kts | 106° |
| 2026-04-30 13:20 | 23.55662 | 70.87138 | 34884 ft | 534 kts | 106° |
| 2026-04-30 13:21 | 23.54601 | 70.91005 | 34409 ft | 530 kts | 105° |
| 2026-04-30 13:21 | 23.53545 | 70.94847 | 33898 ft | 527 kts | 105° |
| 2026-04-30 13:21 | 23.52494 | 70.98669 | 33310 ft | 525 kts | 105° |
| 2026-04-30 13:22 | 23.50700 | 71.04509 | 32331 ft | 521 kts | 110° |
| 2026-04-30 13:22 | 23.49591 | 71.07556 | 31827 ft | 519 kts | 110° |
| 2026-04-30 13:22 | 23.46950 | 71.14848 | 30563 ft | 516 kts | 110° |
| 2026-04-30 13:23 | 23.45653 | 71.18487 | 29889 ft | 516 kts | 109° |
| 2026-04-30 13:23 | 23.43134 | 71.25589 | 28344 ft | 494 kts | 109° |
| 2026-04-30 13:24 | 23.40701 | 71.32472 | 26856 ft | 481 kts | 108° |
| 2026-04-30 13:24 | 23.38327 | 71.39184 | 25564 ft | 470 kts | 108° |
| 2026-04-30 13:25 | 23.35990 | 71.45792 | 24339 ft | 466 kts | 107° |
| 2026-04-30 13:25 | 23.33673 | 71.52327 | 23032 ft | 459 kts | 107° |
| 2026-04-30 13:26 | 23.30262 | 71.61934 | 20852 ft | 448 kts | 108° |
| 2026-04-30 13:26 | 23.28036 | 71.68188 | 19437 ft | 432 kts | 108° |
| 2026-04-30 13:27 | 23.25911 | 71.74151 | 18069 ft | 415 kts | 109° |
| 2026-04-30 13:28 | 23.22837 | 71.82768 | 15830 ft | 398 kts | 109° |
| 2026-04-30 13:28 | 23.20870 | 71.88272 | 14426 ft | 383 kts | 110° |
| 2026-04-30 13:28 | 23.19925 | 71.90912 | 13893 ft | 376 kts | 110° |
| 2026-04-30 13:29 | 23.18051 | 71.96147 | 13023 ft | 365 kts | 110° |
| 2026-04-30 13:29 | 23.16290 | 72.01058 | 12107 ft | 333 kts | 111° |
| 2026-04-30 13:30 | 23.14121 | 72.08003 | 10805 ft | 321 kts | 92° |
| 2026-04-30 13:31 | 23.14544 | 72.12784 | 9978 ft | 316 kts | 81° |
| 2026-04-30 13:31 | 23.15573 | 72.19859 | 8680 ft | 313 kts | 81° |
| 2026-04-30 13:32 | 23.16279 | 72.24491 | 7913 ft | 309 kts | 81° |
| 2026-04-30 13:32 | 23.16994 | 72.29075 | 7202 ft | 305 kts | 81° |
| 2026-04-30 13:33 | 23.17709 | 72.33602 | 6629 ft | 303 kts | 81° |
| 2026-04-30 13:33 | 23.18433 | 72.38087 | 6076 ft | 300 kts | 81° |
| 2026-04-30 13:34 | 23.18797 | 72.40321 | 5790 ft | 299 kts | 80° |
| 2026-04-30 13:34 | 23.19867 | 72.46954 | 4955 ft | 295 kts | 81° |
| 2026-04-30 13:35 | 23.20207 | 72.49094 | 4709 ft | 285 kts | 81° |
| 2026-04-30 13:35 | 23.20847 | 72.53200 | 4235 ft | 266 kts | 81° |
| 2026-04-30 13:36 | 23.21442 | 72.57066 | 3744 ft | 253 kts | 80° |
| 2026-04-30 13:36 | 23.21728 | 72.58932 | 3513 ft | 248 kts | 81° |
| 2026-04-30 13:36 | 23.22305 | 72.62606 | 3136 ft | 246 kts | 81° |
| 2026-04-30 13:37 | 23.22605 | 72.64428 | 2912 ft | 244 kts | 81° |
| 2026-04-30 13:37 | 23.23033 | 72.68054 | 2450 ft | 237 kts | 96° |
| 2026-04-30 13:38 | 23.22655 | 72.71445 | 2093 ft | 215 kts | 100° |
| 2026-04-30 13:38 | 23.22461 | 72.73014 | 2021 ft | 206 kts | 100° |
| 2026-04-30 13:38 | 23.20944 | 72.75327 | 2019 ft | 189 kts | 166° |
| 2026-04-30 13:39 | 23.18521 | 72.74839 | 2005 ft | 178 kts | 211° |
| 2026-04-30 13:39 | 23.16813 | 72.73183 | 2001 ft | 159 kts | 224° |
| 2026-04-30 13:40 | 23.16021 | 72.72351 | 2002 ft | 158 kts | 225° |
| 2026-04-30 13:40 | 23.15239 | 72.71513 | 1864 ft | 158 kts | 225° |
| 2026-04-30 13:40 | 23.14462 | 72.70685 | 1660 ft | 153 kts | 225° |
| 2026-04-30 13:40 | 23.13724 | 72.69893 | 1464 ft | 145 kts | 223° |
| 2026-04-30 13:41 | 23.13031 | 72.69148 | 1273 ft | 136 kts | 221° |
| 2026-04-30 13:41 | 23.12384 | 72.68455 | 1110 ft | 130 kts | 222° |
| 2026-04-30 13:41 | 23.11738 | 72.67762 | 978 ft | 130 kts | 221° |
| 2026-04-30 13:41 | 23.11099 | 72.67062 | 823 ft | 131 kts | 222° |
| 2026-04-30 13:42 | 23.10461 | 72.66354 | 672 ft | 129 kts | 219° |
| 2026-04-30 13:42 | 23.09826 | 72.65670 | 518 ft | 131 kts | 222° |
| 2026-04-30 13:42 | 23.08490 | 72.64254 | 218 ft | 129 kts | 219° |
| 2026-04-30 13:43 | 23.07928 | 72.63668 | 211 ft | 94 kts | 224° |
| 2026-04-30 13:43 | 23.07542 | 72.63254 | 216 ft | 60 kts | 230° |
| 2026-04-30 13:43 | 23.07434 | 72.63007 | 210 ft | 7 kts | 252° |
| 2026-04-30 13:43 | 23.07421 | 72.62947 | 207 ft | 9 kts | 264° |
| 2026-04-30 13:44 | 23.07455 | 72.62885 | 209 ft | 12 kts | 308° |
| 2026-04-30 13:44 | 23.07517 | 72.62804 | 209 ft | 16 kts | 312° |
| 2026-04-30 13:44 | 23.07517 | 72.62727 | 207 ft | 12 kts | 230° |
| 2026-04-30 13:44 | 23.07448 | 72.62653 | 202 ft | 16 kts | 225° |
| 2026-04-30 13:45 | 23.07466 | 72.62569 | 202 ft | 0 kts | 317° |